createdAt,value
2018-04-15T00:00:02.429Z,8.2
2018-04-15T00:15:02.729Z,7.9
2018-04-15T00:30:03.103Z,7.6
2018-04-15T00:45:02.433Z,7.3
2018-04-15T01:00:02.763Z,7.1
2018-04-15T01:15:03.007Z,7.2
2018-04-15T01:30:02.339Z,6.9
2018-04-15T01:45:02.596Z,6.6
2018-04-15T02:00:02.830Z,6.8
2018-04-15T02:15:03.079Z,6.4
2018-04-15T02:30:02.671Z,6.4
2018-04-15T02:45:02.989Z,6.6
2018-04-15T03:00:02.340Z,6.4
2018-04-15T03:15:02.610Z,6.2
2018-04-15T03:30:02.974Z,5.9
2018-04-15T03:45:02.264Z,5.9
2018-04-15T04:00:02.542Z,5.8
2018-04-15T04:15:02.790Z,6.1
2018-04-15T04:30:03.131Z,5.9
2018-04-15T04:45:02.439Z,5.9
2018-04-15T05:00:02.755Z,6
2018-04-15T05:15:03.085Z,6.2
2018-04-15T05:30:02.462Z,6.4
2018-04-15T05:45:02.742Z,6.5
2018-04-15T06:00:02.990Z,6.8
2018-04-15T06:15:02.332Z,7.2
2018-04-15T06:30:02.939Z,8.2
2018-04-15T06:45:03.224Z,9.2
2018-04-15T07:00:02.552Z,10.1
2018-04-15T07:15:02.793Z,11.2
2018-04-15T07:30:03.193Z,11.8
2018-04-15T07:45:02.516Z,12.9
2018-04-15T08:00:02.780Z,14.4
2018-04-15T08:15:03.155Z,15.8
2018-04-15T08:30:02.583Z,16.5
2018-04-15T08:45:02.833Z,16.2
2018-04-15T09:00:03.171Z,17.1
2018-04-15T09:15:02.458Z,17.1
2018-04-15T09:30:02.944Z,17
2018-04-15T09:45:03.208Z,17.1
2018-04-15T10:00:02.576Z,17.3
2018-04-15T10:15:02.822Z,17.4
2018-04-15T10:30:03.310Z,17.1
2018-04-15T10:45:02.654Z,17.2
2018-04-15T11:00:02.969Z,17
2018-04-15T11:15:02.293Z,16.9
2018-04-15T11:30:02.689Z,17.8
2018-04-15T11:45:02.967Z,17.5
2018-04-15T12:00:02.274Z,18.1
2018-04-15T12:15:02.585Z,18.1
2018-04-15T12:30:02.890Z,19.7
2018-04-15T12:45:03.255Z,19.4
2018-04-15T13:00:02.591Z,19.8
2018-04-15T13:15:02.829Z,19.4
2018-04-15T13:30:04.150Z,19.2
2018-04-15T13:45:02.563Z,18.8
2018-04-15T14:00:02.867Z,19.3
2018-04-15T14:15:03.135Z,19.4
2018-04-15T14:30:02.545Z,19
2018-04-15T14:45:02.871Z,18.8
2018-04-15T15:00:03.176Z,18.6
2018-04-15T15:15:02.475Z,18.3
2018-04-15T15:30:02.837Z,18.3
2018-04-15T15:45:03.094Z,18.2
2018-04-15T16:00:02.431Z,17.9
2018-04-15T16:15:02.781Z,17.8
2018-04-15T16:30:03.148Z,17.4
2018-04-15T16:45:02.385Z,17.1
2018-04-15T17:00:02.685Z,16.7
2018-04-15T17:15:03.027Z,16.6
2018-04-15T17:30:02.400Z,16.3
2018-04-15T17:45:02.689Z,16.1
2018-04-15T18:00:02.931Z,15.8
2018-04-15T18:15:03.160Z,15.4
2018-04-15T18:30:02.540Z,15.5
2018-04-15T18:45:02.861Z,15.2
2018-04-15T19:00:03.122Z,15
2018-04-15T19:15:02.385Z,14.9
2018-04-15T19:30:02.714Z,14.6
2018-04-15T19:45:02.926Z,14.7
2018-04-15T20:00:03.224Z,14.7
2018-04-15T20:15:02.468Z,14.3
2018-04-15T20:30:02.828Z,14.4
2018-04-15T20:45:03.100Z,14.3
2018-04-15T21:00:02.489Z,14.1
2018-04-15T21:15:02.789Z,14
2018-04-15T21:30:03.094Z,14.1
2018-04-15T21:45:02.372Z,13.8
2018-04-15T22:00:02.629Z,13.6
2018-04-15T22:15:02.959Z,13.7
2018-04-15T22:30:02.389Z,13.6
2018-04-15T22:45:02.739Z,13.5
2018-04-15T23:00:03.003Z,13.4
2018-04-15T23:15:02.396Z,13.2
2018-04-15T23:30:02.720Z,13.1
2018-04-15T23:45:03.112Z,13
